Time;durP1;ratioP1;P1;durP2;ratioP2;P2;SDS_P1;SDS_P2;PMS_P1;PMS_P2;Temp;Humidity;BMP_temperature;BMP_pressure;BME280_temperature;BME280_humidity;BME280_pressure;Samples;Min_cycle;Max_cycle;Signal;HPM_P1;HPM_P2
2022/04/12 00:00:02;;;;;;;;;;;;;;;21.18;29.94;95489.38;10458681;28;1855;-50
2022/04/12 00:05:02;;;;;;;;;;;;;;;21.21;30.12;95488.00;10464923;28;1914;-53
2022/04/12 00:10:05;;;;;;;;;;;;;;;21.20;29.91;95484.63;10462494;28;1864;-54
2022/04/12 00:15:05;;;;;;;;;;;;;;;21.17;29.87;95477.25;10463677;28;1831;-54
2022/04/12 00:20:06;;;;;;;;;;;;;;;21.21;29.77;95480.09;10467777;28;1879;-51
2022/04/12 00:25:09;;;;;;;;;;;;;;;21.18;29.71;95478.84;10459495;28;1918;-52
2022/04/12 00:30:11;;;;;;;;;;;;;;;21.19;29.77;95484.88;10463732;28;1869;-50
2022/04/12 00:35:12;;;;;;;;;;;;;;;21.17;29.78;95484.38;10463411;28;1887;-53
2022/04/12 00:40:13;;;;;;;;;;;;;;;21.19;29.65;95490.94;10456927;28;2290;-52
2022/04/12 00:45:14;;;;;;;;;;;;;;;21.17;29.72;95489.66;10456881;28;1906;-52
2022/04/12 00:50:14;;;;;;;;;;;;;;;21.18;29.78;95489.38;10459535;28;2032;-53
2022/04/12 00:55:15;;;;;;;;;;;;;;;21.20;29.55;95483.81;10463057;28;1776;-53
2022/04/12 01:00:18;;;;;;;;;;;;;;;21.18;29.64;95480.69;10455975;28;1981;-54
2022/04/12 01:05:18;;;;;;;;;;;;;;;21.19;29.63;95466.44;10457888;28;1988;-53
2022/04/12 01:10:19;;;;;;;;;;;;;;;21.21;29.71;95464.28;10459807;28;1906;-49
2022/04/12 01:15:21;;;;;;;;;;;;;;;21.19;29.76;95450.59;10444527;28;1936;-50
2022/04/12 01:20:29;;;;;;;;;;;;;;;21.16;29.68;95452.00;10459849;28;1931;-53
2022/04/12 01:25:30;;;;;;;;;;;;;;;21.16;29.89;95459.91;10461805;28;1922;-52
2022/04/12 01:30:31;;;;;;;;;;;;;;;21.17;29.63;95458.81;10467285;28;1939;-53
2022/04/12 01:35:34;;;;;;;;;;;;;;;21.17;29.49;95452.75;10462236;28;1997;-53
2022/04/12 01:40:34;;;;;;;;;;;;;;;21.18;29.57;95452.47;10462056;28;1998;-53
2022/04/12 01:45:35;;;;;;;;;;;;;;;21.19;29.60;95453.25;10467349;28;1985;-53
2022/04/12 01:50:35;;;;;;;;;;;;;;;21.20;29.36;95452.19;10465748;28;1867;-53
2022/04/12 01:55:35;;;;;;;;;;;;;;;21.18;29.43;95454.31;10464841;28;1965;-54
2022/04/12 02:00:36;;;;;;;;;;;;;;;21.19;29.45;95450.59;10456687;28;1880;-54
2022/04/12 02:05:36;;;;;;;;;;;;;;;21.17;29.39;95445.63;10462882;28;1985;-53
2022/04/12 02:10:36;;;;;;;;;;;;;;;21.20;29.46;95446.91;10462660;28;1919;-51
2022/04/12 02:15:37;;;;;;;;;;;;;;;21.19;29.38;95445.34;10455569;28;2121;-53
2022/04/12 02:20:37;;;;;;;;;;;;;;;21.16;29.37;95445.91;10458169;28;2189;-52
2022/04/12 02:25:37;;;;;;;;;;;;;;;21.17;29.29;95458.81;10463305;28;2053;-54
2022/04/12 02:30:38;;;;;;;;;;;;;;;21.18;29.38;95451.69;10462249;28;1918;-51
2022/04/12 02:35:38;;;;;;;;;;;;;;;21.17;29.28;95450.91;10462503;28;1943;-53
2022/04/12 02:40:38;;;;;;;;;;;;;;;21.17;29.30;95450.13;10461047;28;1919;-53
2022/04/12 02:45:40;;;;;;;;;;;;;;;21.20;29.09;95452.19;10472287;28;1957;-53
2022/04/12 02:50:40;;;;;;;;;;;;;;;21.20;29.28;95446.91;10472424;28;1903;-48
2022/04/12 02:55:41;;;;;;;;;;;;;;;21.19;29.31;95451.41;10465609;28;2002;-53
2022/04/12 03:00:41;;;;;;;;;;;;;;;21.19;29.15;95461.16;10471687;28;2000;-52
2022/04/12 03:05:41;;;;;;;;;;;;;;;21.17;29.11;95453.53;10463397;28;2361;-52
2022/04/12 03:10:42;;;;;;;;;;;;;;;21.18;29.08;95449.84;10466070;28;1982;-53
2022/04/12 03:15:42;;;;;;;;;;;;;;;21.16;28.94;95446.72;10468300;28;2121;-50
2022/04/12 03:20:43;;;;;;;;;;;;;;;21.18;29.02;95447.22;10470579;28;2107;-53
2022/04/12 03:25:43;;;;;;;;;;;;;;;21.16;28.95;95445.91;10468656;28;2253;-53
2022/04/12 03:30:43;;;;;;;;;;;;;;;21.16;29.21;95441.44;10467633;28;2037;-53
2022/04/12 03:35:44;;;;;;;;;;;;;;;21.15;29.19;95444.34;10465357;28;2094;-53
2022/04/12 03:40:46;;;;;;;;;;;;;;;21.15;29.14;95425.88;10464017;28;1899;-52
2022/04/12 03:45:47;;;;;;;;;;;;;;;21.15;28.96;95429.31;10454205;28;2147;-53
2022/04/12 03:50:47;;;;;;;;;;;;;;;21.15;29.12;95425.88;10465915;28;1970;-52
2022/04/12 03:55:48;;;;;;;;;;;;;;;21.16;29.02;95435.38;10462814;28;1872;-52
2022/04/12 04:00:48;;;;;;;;;;;;;;;21.15;29.04;95445.13;10468508;28;1906;-50
2022/04/12 04:05:48;;;;;;;;;;;;;;;21.16;28.91;95438.00;10467152;28;1981;-52
2022/04/12 04:10:50;;;;;;;;;;;;;;;21.16;29.01;95444.06;10468106;28;1981;-48
2022/04/12 04:15:50;;;;;;;;;;;;;;;21.19;29.03;95448.75;10467028;28;1982;-52
2022/04/12 04:20:51;;;;;;;;;;;;;;;21.18;29.09;95441.16;10465848;28;1918;-52
2022/04/12 04:25:51;;;;;;;;;;;;;;;21.19;29.18;95442.69;10461151;28;1968;-51
2022/04/12 04:30:51;;;;;;;;;;;;;;;21.16;29.11;95452.00;10462384;28;1961;-52
2022/04/12 04:35:52;;;;;;;;;;;;;;;21.18;28.83;95451.69;10461863;28;2132;-54
2022/04/12 04:40:54;;;;;;;;;;;;;;;21.19;28.87;95453.25;10455456;28;2350;-53
2022/04/12 04:45:55;;;;;;;;;;;;;;;21.18;29.00;95444.56;10479549;23;2265;-72
2022/04/12 04:50:56;;;;;;;;;;;;;;;21.18;29.01;95449.84;10475950;28;1879;-70
2022/04/12 04:55:56;;;;;;;;;;;;;;;21.20;28.88;95445.06;10438345;28;1856;-73
2022/04/12 05:00:57;;;;;;;;;;;;;;;21.19;28.95;95443.50;10428665;28;2160;-71
2022/04/12 05:05:57;;;;;;;;;;;;;;;21.17;29.29;95458.03;10442995;28;2232;-71
2022/04/12 05:10:57;;;;;;;;;;;;;;;21.18;29.28;95470.94;10390106;28;1982;-71
2022/04/12 05:15:58;;;;;;;;;;;;;;;21.18;29.10;95470.16;10408497;28;1898;-72
2022/04/12 05:20:58;;;;;;;;;;;;;;;21.16;29.22;95467.00;10435793;28;1812;-71
2022/04/12 05:25:59;;;;;;;;;;;;;;;21.13;29.44;95471.00;10421744;28;2034;-70
2022/04/12 05:30:59;;;;;;;;;;;;;;;21.12;29.30;95472.06;10431215;28;1943;-72
2022/04/12 05:36:00;;;;;;;;;;;;;;;21.14;29.29;95471.78;10434666;28;1967;-72
2022/04/12 05:41:00;;;;;;;;;;;;;;;21.12;29.36;95469.44;10434057;28;1950;-72
2022/04/12 05:46:00;;;;;;;;;;;;;;;21.10;29.17;95478.69;10430226;28;1977;-71
2022/04/12 05:51:01;;;;;;;;;;;;;;;21.13;29.18;95478.09;10435911;28;1890;-71
2022/04/12 05:56:01;;;;;;;;;;;;;;;21.13;29.15;95480.75;10435903;28;1949;-72
2022/04/12 06:01:02;;;;;;;;;;;;;;;21.09;29.11;95480.53;10430775;28;1885;-71
2022/04/12 06:06:02;;;;;;;;;;;;;;;21.13;29.12;95491.28;10433212;28;1967;-72
2022/04/12 06:11:03;;;;;;;;;;;;;;;21.13;29.37;95483.38;10427320;28;1971;-72
2022/04/12 06:16:03;;;;;;;;;;;;;;;21.10;29.28;95481.31;10428410;28;2068;-72
2022/04/12 06:21:04;;;;;;;;;;;;;;;21.11;29.70;95485.50;10434013;28;1825;-72
2022/04/12 06:26:04;;;;;;;;;;;;;;;21.16;29.42;95480.19;10441574;28;2123;-72
2022/04/12 06:31:05;;;;;;;;;;;;;;;21.15;29.68;95483.88;10433846;28;1905;-72
2022/04/12 06:36:06;;;;;;;;;;;;;;;21.14;29.55;95484.97;10403603;28;2068;-72
2022/04/12 06:41:06;;;;;;;;;;;;;;;21.15;29.73;95489.94;10430732;28;1876;-72
2022/04/12 06:46:07;;;;;;;;;;;;;;;21.15;29.61;95481.25;10414988;28;2095;-72
2022/04/12 06:51:07;;;;;;;;;;;;;;;21.12;29.58;95482.63;10436866;28;1912;-71
2022/04/12 06:56:08;;;;;;;;;;;;;;;21.13;29.43;95481.53;10436268;28;2113;-72
2022/04/12 07:01:09;;;;;;;;;;;;;;;21.14;29.38;95475.22;10432153;28;2063;-72
2022/04/12 07:06:09;;;;;;;;;;;;;;;21.13;29.31;95484.16;10420024;28;2079;-71
2022/04/12 07:11:09;;;;;;;;;;;;;;;21.12;29.46;95485.25;10433967;28;2055;-72
2022/04/12 07:16:10;;;;;;;;;;;;;;;21.13;29.40;95497.34;10437884;28;1920;-72
2022/04/12 07:21:10;;;;;;;;;;;;;;;21.15;29.03;95491.78;10432924;28;2014;-71
2022/04/12 07:26:11;;;;;;;;;;;;;;;21.15;29.38;95504.97;10435744;28;1975;-71
2022/04/12 07:31:15;;;;;;;;;;;;;;;21.15;29.46;95497.06;10413278;28;2007;-71
2022/04/12 07:36:15;;;;;;;;;;;;;;;21.16;29.31;95503.91;10436295;28;1987;-73
2022/04/12 07:41:16;;;;;;;;;;;;;;;21.17;29.13;95503.63;10422050;28;2037;-71
2022/04/12 07:46:16;;;;;;;;;;;;;;;21.19;29.31;95508.59;10401296;28;1910;-72
2022/04/12 07:51:16;;;;;;;;;;;;;;;21.17;29.30;95490.44;10432372;28;1792;-72
2022/04/12 07:56:17;;;;;;;;;;;;;;;21.20;29.55;95494.38;10421518;28;1843;-71
2022/04/12 08:01:17;;;;;;;;;;;;;;;21.20;29.18;95497.00;10428248;28;1827;-72
2022/04/12 08:06:18;;;;;;;;;;;;;;;21.20;29.37;95489.09;10422161;28;1913;-72
2022/04/12 08:11:18;;;;;;;;;;;;;;;21.22;29.51;95481.69;10432784;28;1788;-72
2022/04/12 08:16:18;;;;;;;;;;;;;;;21.23;29.43;95476.13;10447089;28;1843;-71
2022/04/12 08:21:31;;;;;;;;;;;;;;;21.22;29.77;95471.16;10433813;28;1851;-70
2022/04/12 08:26:32;;;;;;;;;;;;;;;21.25;29.34;95476.63;10432159;28;2251;-72
2022/04/12 08:31:32;;;;;;;;;;;;;;;21.26;29.53;95470.31;10432466;28;1740;-72
2022/04/12 08:36:32;;;;;;;;;;;;;;;21.29;29.72;95471.59;10429740;28;1813;-71
2022/04/12 08:41:33;;;;;;;;;;;;;;;21.29;29.47;95467.06;10434913;28;1854;-71
2022/04/12 08:46:34;;;;;;;;;;;;;;;21.30;29.55;95466.03;10430789;28;1906;-72
2022/04/12 08:51:35;;;;;;;;;;;;;;;21.32;29.32;95468.38;10428348;28;1843;-73
2022/04/12 08:56:36;;;;;;;;;;;;;;;21.34;29.60;95468.88;10415246;28;1818;-72
2022/04/12 09:01:36;;;;;;;;;;;;;;;21.33;29.59;95467.31;10395764;28;1809;-73
2022/04/12 09:06:49;;;;;;;;;;;;;;;21.34;29.56;95460.97;10411002;28;2156;-71
2022/04/12 09:11:58;;;;;;;;;;;;;;;21.33;29.72;95465.44;10442943;28;2076;-73
2022/04/12 09:16:59;;;;;;;;;;;;;;;21.36;29.63;95464.88;10447500;28;1811;-73
2022/04/12 09:21:59;;;;;;;;;;;;;;;21.34;29.74;95453.03;10430942;28;1811;-72
2022/04/12 09:26:59;;;;;;;;;;;;;;;21.36;29.77;95456.19;10430449;28;1972;-73
2022/04/12 09:32:01;;;;;;;;;;;;;;;21.38;29.80;95460.09;10433737;28;1904;-72
2022/04/12 09:37:02;;;;;;;;;;;;;;;21.37;29.98;95450.63;10432589;28;1956;-72
2022/04/12 09:42:02;;;;;;;;;;;;;;;21.41;29.82;95448.22;10428757;28;1877;-72
2022/04/12 09:47:03;;;;;;;;;;;;;;;21.39;30.06;95443.22;10429819;28;1944;-73
2022/04/12 09:52:10;;;;;;;;;;;;;;;21.39;29.85;95431.91;10422350;28;1846;-73
2022/04/12 09:57:10;;;;;;;;;;;;;;;21.41;29.97;95430.53;10433342;28;1837;-73
2022/04/12 10:02:11;;;;;;;;;;;;;;;21.41;30.04;95422.59;10426095;28;1962;-73
2022/04/12 10:07:11;;;;;;;;;;;;;;;21.40;29.92;95413.16;10429714;28;1955;-73
2022/04/12 10:12:12;;;;;;;;;;;;;;;21.40;29.98;95399.97;10429047;28;2000;-74
2022/04/12 10:17:13;;;;;;;;;;;;;;;21.38;29.97;95401.31;10432788;28;1856;-71
2022/04/12 10:22:13;;;;;;;;;;;;;;;21.37;30.29;95391.84;10429810;28;1864;-71
2022/04/12 10:27:13;;;;;;;;;;;;;;;21.38;30.14;95396.03;10418288;28;1951;-71
2022/04/12 10:32:14;;;;;;;;;;;;;;;21.37;30.88;95386.56;10427368;28;1883;-70
2022/04/12 10:37:14;;;;;;;;;;;;;;;21.42;31.71;95383.84;10434303;28;1487;-73
2022/04/12 10:42:24;;;;;;;;;;;;;;;21.41;32.09;95380.41;10408673;28;1858;-70
2022/04/12 10:47:40;;;;;;;;;;;;;;;21.43;31.84;95366.97;10431330;28;1969;-71
2022/04/12 10:52:48;;;;;;;;;;;;;;;21.42;31.59;95371.44;10410858;28;2164;-70
2022/04/12 10:57:50;;;;;;;;;;;;;;;21.38;31.87;95367.03;10417861;28;1827;-69
2022/04/12 11:02:54;;;;;;;;;;;;;;;21.37;32.05;95368.13;10433044;28;1857;-69
2022/04/12 11:07:54;;;;;;;;;;;;;;;21.35;31.96;95359.72;10451598;28;1969;-71
2022/04/12 11:13:04;;;;;;;;;;;;;;;21.37;30.97;95362.84;10435972;28;1746;-71
2022/04/12 11:18:05;;;;;;;;;;;;;;;21.33;31.33;95351.31;10445603;28;1858;-72
2022/04/12 11:23:10;;;;;;;;;;;;;;;21.27;31.10;95347.19;10447071;28;1884;-73
2022/04/12 11:28:12;;;;;;;;;;;;;;;21.25;31.43;95360.63;10433296;28;1969;-70
2022/04/12 11:33:13;;;;;;;;;;;;;;;21.24;31.67;95348.53;10440957;28;1804;-72
2022/04/12 11:38:13;;;;;;;;;;;;;;;21.24;31.79;95343.28;10438987;28;1805;-72
2022/04/12 11:43:21;;;;;;;;;;;;;;;21.21;31.69;95346.47;10439158;28;1768;-72
2022/04/12 11:48:21;;;;;;;;;;;;;;;21.21;31.79;95348.31;10419293;28;1898;-72
2022/04/12 11:53:22;;;;;;;;;;;;;;;21.19;31.83;95338.06;10420284;28;1857;-72
2022/04/12 11:58:23;;;;;;;;;;;;;;;21.18;31.64;95343.63;10433531;28;1873;-71
2022/04/12 12:03:24;;;;;;;;;;;;;;;21.17;31.74;95348.09;10435641;28;1850;-71
2022/04/12 12:08:25;;;;;;;;;;;;;;;21.16;31.79;95333.38;10438739;28;1938;-71
2022/04/12 12:13:26;;;;;;;;;;;;;;;21.17;31.88;95331.50;10430906;28;1886;-70
2022/04/12 12:18:26;;;;;;;;;;;;;;;21.17;31.85;95337.56;10426886;28;1944;-70
2022/04/12 12:23:27;;;;;;;;;;;;;;;21.19;31.89;95334.63;10434788;28;1847;-70
2022/04/12 12:28:27;;;;;;;;;;;;;;;21.21;31.98;95327.22;10414723;28;1899;-72
2022/04/12 12:33:36;;;;;;;;;;;;;;;21.23;31.82;95340.91;10430183;28;1783;-71
2022/04/12 12:38:42;;;;;;;;;;;;;;;21.23;31.83;95330.34;10432732;28;1848;-71
2022/04/12 12:43:42;;;;;;;;;;;;;;;21.26;31.85;95335.06;10428246;28;2111;-72
2022/04/12 12:48:42;;;;;;;;;;;;;;;21.26;31.79;95330.59;10426553;28;1945;-72
2022/04/12 12:53:43;;;;;;;;;;;;;;;21.28;32.09;95333.72;10414443;28;1910;-72
2022/04/12 12:58:43;;;;;;;;;;;;;;;21.32;31.86;95328.63;10420850;28;2406;-72
2022/04/12 13:03:53;;;;;;;;;;;;;;;21.32;31.85;95318.88;10440691;28;1899;-72
2022/04/12 13:09:03;;;;;;;;;;;;;;;21.32;31.85;95321.53;10427547;28;1967;-72
2022/04/12 13:14:05;;;;;;;;;;;;;;;21.35;31.80;95328.84;10410177;28;1757;-71
2022/04/12 13:19:05;;;;;;;;;;;;;;;21.36;31.84;95321.72;10426962;28;1815;-72
2022/04/12 13:24:05;;;;;;;;;;;;;;;21.37;31.75;95315.38;10428537;28;1822;-71
2022/04/12 13:29:06;;;;;;;;;;;;;;;21.38;31.72;95311.66;10447543;28;1906;-69
2022/04/12 13:34:06;;;;;;;;;;;;;;;21.39;31.73;95300.06;10426607;28;1983;-71
2022/04/12 13:39:08;;;;;;;;;;;;;;;21.41;31.67;95296.03;10429924;28;1911;-71
2022/04/12 13:44:08;;;;;;;;;;;;;;;21.40;31.71;95296.34;10428621;28;1830;-73
2022/04/12 13:49:09;;;;;;;;;;;;;;;21.40;31.99;95289.22;10426810;28;1972;-73
2022/04/12 13:54:09;;;;;;;;;;;;;;;21.43;31.68;95282.59;10432447;28;1785;-71
2022/04/12 13:59:10;;;;;;;;;;;;;;;21.45;31.66;95291.00;10429449;28;1861;-72
2022/04/12 14:04:10;;;;;;;;;;;;;;;21.42;31.91;95291.56;10412044;28;1837;-71
2022/04/12 14:09:10;;;;;;;;;;;;;;;21.44;31.83;95294.69;10432970;28;1958;-72
2022/04/12 14:14:14;;;;;;;;;;;;;;;21.42;31.95;95288.94;10428447;28;1916;-71
2022/04/12 14:19:14;;;;;;;;;;;;;;;21.39;31.82;95290.28;10430877;28;1766;-72
2022/04/12 14:24:15;;;;;;;;;;;;;;;21.37;31.96;95287.16;10446888;28;1850;-72
2022/04/12 14:29:15;;;;;;;;;;;;;;;21.36;31.98;95290.88;10413405;28;1898;-70
2022/04/12 14:34:16;;;;;;;;;;;;;;;21.35;31.82;95291.94;10427754;28;1845;-71
2022/04/12 14:39:16;;;;;;;;;;;;;;;21.33;31.83;95286.16;10431571;28;1825;-71
2022/04/12 14:44:16;;;;;;;;;;;;;;;21.35;31.83;95291.16;10420930;28;1948;-70
2022/04/12 14:49:18;;;;;;;;;;;;;;;21.33;32.02;95293.31;10438442;28;1933;-70
2022/04/12 14:54:19;;;;;;;;;;;;;;;21.33;31.76;95288.03;10408092;28;1788;-71
2022/04/12 14:59:19;;;;;;;;;;;;;;;21.32;31.92;95281.97;10455120;28;2231;-71
2022/04/12 15:04:20;;;;;;;;;;;;;;;21.32;32.11;95283.81;10423434;28;2494;-72
2022/04/12 15:09:21;;;;;;;;;;;;;;;21.33;32.02;95280.13;10433724;28;1906;-70
2022/04/12 15:14:21;;;;;;;;;;;;;;;21.33;32.11;95280.13;10438190;28;1837;-72
2022/04/12 15:19:23;;;;;;;;;;;;;;;21.34;31.85;95279.03;10425256;28;1842;-71
2022/04/12 15:24:25;;;;;;;;;;;;;;;21.33;31.85;95282.75;10438024;28;2146;-70
2022/04/12 15:29:26;;;;;;;;;;;;;;;21.36;31.78;95279.53;10431691;28;2297;-70
2022/04/12 15:34:26;;;;;;;;;;;;;;;21.34;31.88;95281.69;10411067;28;1900;-71
2022/04/12 15:39:27;;;;;;;;;;;;;;;21.34;32.17;95279.03;10432726;28;1800;-72
2022/04/12 15:44:27;;;;;;;;;;;;;;;21.40;32.06;95283.16;10414309;28;2043;-72
2022/04/12 15:49:30;;;;;;;;;;;;;;;21.37;31.79;95283.75;10436306;28;2019;-72
2022/04/12 15:54:30;;;;;;;;;;;;;;;21.35;31.35;95297.19;10448659;28;1866;-72
2022/04/12 15:59:31;;;;;;;;;;;;;;;21.33;31.69;95294.06;10432684;28;1811;-71
2022/04/12 16:04:31;;;;;;;;;;;;;;;21.37;31.55;95291.66;10412684;28;1819;-72
2022/04/12 16:09:32;;;;;;;;;;;;;;;21.31;31.62;95295.47;10433516;28;1910;-69
2022/04/12 16:14:32;;;;;;;;;;;;;;;21.33;31.68;95290.69;10431336;28;1818;-69
2022/04/12 16:19:33;;;;;;;;;;;;;;;21.33;31.86;95299.34;10426999;28;1917;-70
2022/04/12 16:24:34;;;;;;;;;;;;;;;21.38;31.88;95301.91;10425134;28;1855;-69
2022/04/12 16:29:34;;;;;;;;;;;;;;;21.37;32.00;95304.84;10429301;28;1906;-71
2022/04/12 16:34:34;;;;;;;;;;;;;;;21.37;32.10;95307.47;10445151;28;2131;-70
2022/04/12 16:39:35;;;;;;;;;;;;;;;21.35;32.24;95310.38;10429305;28;1828;-72
2022/04/12 16:44:35;;;;;;;;;;;;;;;21.36;32.55;95316.44;10415715;28;1951;-70
2022/04/12 16:49:36;;;;;;;;;;;;;;;21.36;32.41;95316.44;10423550;28;1906;-70
2022/04/12 16:54:37;;;;;;;;;;;;;;;21.35;32.46;95317.53;10433778;28;1855;-69
2022/04/12 16:59:37;;;;;;;;;;;;;;;21.35;32.52;95322.81;10427390;28;1811;-70
2022/04/12 17:04:38;;;;;;;;;;;;;;;21.32;32.75;95331.28;10415236;28;1930;-70
2022/04/12 17:09:38;;;;;;;;;;;;;;;21.31;32.99;95330.50;10413619;28;1941;-71
2022/04/12 17:14:39;;;;;;;;;;;;;;;21.30;32.78;95336.06;10425616;28;2341;-70
2022/04/12 17:19:40;;;;;;;;;;;;;;;21.25;32.77;95330.84;10440968;28;1805;-69
2022/04/12 17:24:40;;;;;;;;;;;;;;;21.24;32.79;95337.19;10431575;28;1807;-70
2022/04/12 17:29:41;;;;;;;;;;;;;;;21.23;32.83;95335.63;10410364;28;1964;-69
2022/04/12 17:34:41;;;;;;;;;;;;;;;21.22;32.81;95334.06;10432030;28;1782;-70
2022/04/12 17:39:42;;;;;;;;;;;;;;;21.22;32.77;95349.88;10425437;28;1962;-70
2022/04/12 17:44:42;;;;;;;;;;;;;;;21.23;32.88;95346.16;10428743;28;1838;-74
2022/04/12 17:49:42;;;;;;;;;;;;;;;21.27;34.04;95349.81;10418967;28;1919;-71
2022/04/12 17:54:43;;;;;;;;;;;;;;;21.29;34.33;95345.06;10422485;28;1996;-71
2022/04/12 17:59:43;;;;;;;;;;;;;;;21.30;34.44;95346.59;10424162;28;1853;-71
2022/04/12 18:04:43;;;;;;;;;;;;;;;21.31;34.36;95353.44;10411490;28;1970;-72
2022/04/12 18:09:44;;;;;;;;;;;;;;;21.30;34.45;95352.66;10427236;28;1902;-71
2022/04/12 18:14:47;;;;;;;;;;;;;;;21.33;34.46;95352.06;10412655;28;1883;-71
2022/04/12 18:19:48;;;;;;;;;;;;;;;21.32;34.74;95360.28;10413301;28;1796;-72
2022/04/12 18:24:49;;;;;;;;;;;;;;;21.33;34.66;95361.84;10420512;28;1783;-70
2022/04/12 18:29:49;;;;;;;;;;;;;;;21.31;34.51;95375.31;10429151;28;1921;-71
2022/04/12 18:34:49;;;;;;;;;;;;;;;21.31;34.61;95377.94;10433286;28;1883;-71
2022/04/12 18:39:50;;;;;;;;;;;;;;;21.35;34.72;95381.56;10435485;28;2001;-71
2022/04/12 18:44:51;;;;;;;;;;;;;;;21.34;35.07;95384.50;10428155;28;1809;-70
2022/04/12 18:49:53;;;;;;;;;;;;;;;21.34;35.45;95387.13;10434356;28;1926;-69
2022/04/12 18:54:54;;;;;;;;;;;;;;;21.35;36.01;95391.34;10423473;28;1973;-70
2022/04/12 18:59:54;;;;;;;;;;;;;;;21.37;36.41;95389.22;10408275;28;1851;-69
2022/04/12 19:04:55;;;;;;;;;;;;;;;21.41;36.31;95384.94;10413911;28;2247;-69
2022/04/12 19:09:56;;;;;;;;;;;;;;;21.37;36.40;95389.22;10427466;28;1983;-69
2022/04/12 19:14:56;;;;;;;;;;;;;;;21.35;36.60;95386.84;10426913;28;1837;-69
2022/04/12 19:19:57;;;;;;;;;;;;;;;21.34;36.46;95395.84;10432158;28;1695;-69
2022/04/12 19:24:57;;;;;;;;;;;;;;;21.31;36.30;95395.63;10432882;28;1909;-69
2022/04/12 19:29:59;;;;;;;;;;;;;;;21.28;36.05;95388.28;10454706;28;1921;-68
2022/04/12 19:34:59;;;;;;;;;;;;;;;21.29;35.74;95395.13;10416565;28;1941;-69
2022/04/12 19:39:59;;;;;;;;;;;;;;;21.23;35.97;95390.97;10429561;28;1891;-69
2022/04/12 19:45:01;;;;;;;;;;;;;;;21.20;35.94;95388.94;10434181;28;1830;-69
2022/04/12 19:50:02;;;;;;;;;;;;;;;21.19;35.92;95382.06;10434810;28;1906;-69
2022/04/12 19:55:02;;;;;;;;;;;;;;;21.19;35.65;95382.06;10439381;28;1958;-70
2022/04/12 20:00:05;;;;;;;;;;;;;;;21.21;35.58;95379.94;10437618;28;1956;-69
2022/04/12 20:05:05;;;;;;;;;;;;;;;21.21;35.56;95374.66;10455182;28;1908;-70
2022/04/12 20:10:06;;;;;;;;;;;;;;;21.20;35.26;95370.47;10434914;28;2000;-71
2022/04/12 20:15:07;;;;;;;;;;;;;;;21.20;35.20;95381.81;10417181;28;1905;-69
2022/04/12 20:20:08;;;;;;;;;;;;;;;21.24;34.98;95382.81;10432086;28;1785;-70
2022/04/12 20:25:10;;;;;;;;;;;;;;;21.25;34.97;95380.94;10419157;28;1797;-70
2022/04/12 20:30:11;;;;;;;;;;;;;;;21.26;34.85;95379.88;10433418;28;1906;-72
2022/04/12 20:35:11;;;;;;;;;;;;;;;21.31;34.83;95371.91;10427975;28;1832;-69
2022/04/12 20:40:12;;;;;;;;;;;;;;;21.30;34.92;95372.97;10430335;28;1795;-73
2022/04/12 20:45:12;;;;;;;;;;;;;;;21.33;34.93;95364.50;10433697;28;1988;-73
2022/04/12 20:50:13;;;;;;;;;;;;;;;21.32;34.88;95368.97;10431837;28;2012;-73
2022/04/12 20:55:13;;;;;;;;;;;;;;;21.34;35.06;95368.69;10432949;28;1829;-72
2022/04/12 21:00:14;;;;;;;;;;;;;;;21.38;34.91;95374.94;10399808;28;1825;-73
2022/04/12 21:05:14;;;;;;;;;;;;;;;21.35;34.99;95370.25;10435389;28;1842;-72
2022/04/12 21:10:15;;;;;;;;;;;;;;;21.39;34.57;95368.63;10421313;28;1906;-71
2022/04/12 21:15:15;;;;;;;;;;;;;;;21.37;34.93;95374.16;10405459;28;1816;-71
2022/04/12 21:20:16;;;;;;;;;;;;;;;21.35;34.83;95378.94;10413740;28;1794;-71
2022/04/12 21:25:16;;;;;;;;;;;;;;;21.35;34.74;95376.28;10405683;28;2129;-71
2022/04/12 21:30:16;;;;;;;;;;;;;;;21.33;34.73;95372.41;10433151;28;1986;-71
2022/04/12 21:35:16;;;;;;;;;;;;;;;21.32;34.74;95376.09;10435405;28;2167;-71
2022/04/12 21:40:17;;;;;;;;;;;;;;;21.34;34.67;95371.31;10433444;28;1993;-72
2022/04/12 21:45:17;;;;;;;;;;;;;;;21.32;34.83;95374.25;10436128;28;2243;-72
2022/04/12 21:50:21;;;;;;;;;;;;;;;21.32;34.86;95378.72;10437364;28;2363;-73
2022/04/12 21:55:22;;;;;;;;;;;;;;;21.33;34.82;95393.50;10437582;28;1880;-73
2022/04/12 22:00:43;;;;;;;;;;;;;;;21.34;34.46;95389.78;10437153;28;2056;-73
2022/04/12 22:05:44;;;;;;;;;;;;;;;21.33;34.52;95396.88;10451159;28;1980;-73
2022/04/12 22:10:44;;;;;;;;;;;;;;;21.33;34.30;95388.97;10401132;28;1836;-73
2022/04/12 22:15:45;;;;;;;;;;;;;;;21.34;34.08;95389.78;10433449;28;1866;-72
2022/04/12 22:20:46;;;;;;;;;;;;;;;21.34;34.13;95392.41;10430731;28;1966;-73
2022/04/12 22:25:46;;;;;;;;;;;;;;;21.35;34.03;95394.75;10418136;28;1921;-73
2022/04/12 22:30:47;;;;;;;;;;;;;;;21.36;34.03;95393.69;10403330;28;1814;-70
2022/04/12 22:35:47;;;;;;;;;;;;;;;21.37;33.94;95397.13;10402629;28;1947;-72
2022/04/12 22:40:48;;;;;;;;;;;;;;;21.36;33.94;95398.19;10429742;28;1889;-72
2022/04/12 22:45:48;;;;;;;;;;;;;;;21.36;33.84;95395.53;10429534;28;1981;-72
2022/04/12 22:50:49;;;;;;;;;;;;;;;21.33;33.85;95396.88;10416482;28;1812;-71
2022/04/12 22:55:51;;;;;;;;;;;;;;;21.33;34.13;95394.25;10413318;28;1813;-72
2022/04/12 23:00:51;;;;;;;;;;;;;;;21.34;33.75;95387.13;10443694;28;1828;-70
2022/04/12 23:05:52;;;;;;;;;;;;;;;21.33;33.89;95390.84;10443042;28;1914;-72
2022/04/12 23:10:52;;;;;;;;;;;;;;;21.33;33.92;95402.16;10443930;28;1886;-71
2022/04/12 23:15:53;;;;;;;;;;;;;;;21.32;33.67;95402.47;10440302;28;1941;-72
2022/04/12 23:20:53;;;;;;;;;;;;;;;21.36;33.54;95400.81;10444779;28;1854;-74
2022/04/12 23:25:53;;;;;;;;;;;;;;;21.35;33.45;95392.13;10423017;28;1930;-70
2022/04/12 23:30:54;;;;;;;;;;;;;;;21.35;33.54;95392.13;10419478;28;1865;-72
2022/04/12 23:35:54;;;;;;;;;;;;;;;21.33;33.37;95388.97;10424037;28;1863;-71
2022/04/12 23:40:54;;;;;;;;;;;;;;;21.33;33.30;95394.25;10450975;28;1867;-71
2022/04/12 23:45:55;;;;;;;;;;;;;;;21.36;33.32;95395.53;10423079;28;1989;-71
2022/04/12 23:50:55;;;;;;;;;;;;;;;21.33;33.17;95399.53;10418751;28;1847;-71
2022/04/12 23:55:56;;;;;;;;;;;;;;;21.34;33.03;95395.03;10440791;28;1821;-72
